sensor_id;sensor_type;location;lat;lon;timestamp;P1;durP1;ratioP1;P2;durP2;ratioP2
22565;SDS011;11449;51.330;19.378;2023-06-14T00:02:22;34.80;;;9.10;;
22565;SDS011;11449;51.330;19.378;2023-06-14T00:07:37;31.60;;;8.40;;
22565;SDS011;11449;51.330;19.378;2023-06-14T00:12:52;31.30;;;8.00;;
22565;SDS011;11449;51.330;19.378;2023-06-14T00:18:00;29.50;;;8.00;;
22565;SDS011;11449;51.330;19.378;2023-06-14T00:28:18;26.50;;;8.50;;
22565;SDS011;11449;51.330;19.378;2023-06-14T00:33:25;24.60;;;8.30;;
22565;SDS011;11449;51.330;19.378;2023-06-14T00:38:33;23.70;;;7.70;;
22565;SDS011;11449;51.330;19.378;2023-06-14T00:43:41;28.20;;;7.90;;
22565;SDS011;11449;51.330;19.378;2023-06-14T00:48:50;29.40;;;7.60;;
22565;SDS011;11449;51.330;19.378;2023-06-14T00:53:57;31.30;;;7.60;;
22565;SDS011;11449;51.330;19.378;2023-06-14T00:59:05;28.50;;;7.40;;
22565;SDS011;11449;51.330;19.378;2023-06-14T01:04:13;35.50;;;7.80;;
22565;SDS011;11449;51.330;19.378;2023-06-14T01:14:36;30.10;;;6.40;;
22565;SDS011;11449;51.330;19.378;2023-06-14T01:19:44;20.30;;;7.00;;
22565;SDS011;11449;51.330;19.378;2023-06-14T01:24:53;27.10;;;7.20;;
22565;SDS011;11449;51.330;19.378;2023-06-14T01:30:02;32.20;;;7.80;;
22565;SDS011;11449;51.330;19.378;2023-06-14T01:35:10;28.10;;;7.80;;
22565;SDS011;11449;51.330;19.378;2023-06-14T01:40:18;32.90;;;7.20;;
22565;SDS011;11449;51.330;19.378;2023-06-14T01:45:27;26.00;;;6.40;;
22565;SDS011;11449;51.330;19.378;2023-06-14T01:50:36;28.60;;;6.50;;
22565;SDS011;11449;51.330;19.378;2023-06-14T01:55:43;29.20;;;6.60;;
22565;SDS011;11449;51.330;19.378;2023-06-14T02:00:52;23.60;;;5.80;;
22565;SDS011;11449;51.330;19.378;2023-06-14T02:06:03;45.00;;;8.20;;
22565;SDS011;11449;51.330;19.378;2023-06-14T02:11:11;34.60;;;7.00;;
22565;SDS011;11449;51.330;19.378;2023-06-14T02:16:19;37.50;;;7.80;;
22565;SDS011;11449;51.330;19.378;2023-06-14T02:21:27;25.30;;;6.10;;
22565;SDS011;11449;51.330;19.378;2023-06-14T02:26:35;34.00;;;7.50;;
22565;SDS011;11449;51.330;19.378;2023-06-14T02:31:42;24.10;;;6.60;;
22565;SDS011;11449;51.330;19.378;2023-06-14T02:36:50;23.50;;;6.10;;
22565;SDS011;11449;51.330;19.378;2023-06-14T02:42:01;24.60;;;6.20;;
22565;SDS011;11449;51.330;19.378;2023-06-14T02:47:08;25.50;;;6.00;;
22565;SDS011;11449;51.330;19.378;2023-06-14T02:52:19;21.70;;;6.20;;
22565;SDS011;11449;51.330;19.378;2023-06-14T02:57:28;11.20;;;5.30;;
22565;SDS011;11449;51.330;19.378;2023-06-14T03:02:36;14.90;;;5.40;;
22565;SDS011;11449;51.330;19.378;2023-06-14T03:07:43;19.40;;;7.30;;
22565;SDS011;11449;51.330;19.378;2023-06-14T03:12:52;16.90;;;6.20;;
22565;SDS011;11449;51.330;19.378;2023-06-14T03:18:01;19.90;;;6.40;;
22565;SDS011;11449;51.330;19.378;2023-06-14T03:23:08;14.60;;;5.50;;
22565;SDS011;11449;51.330;19.378;2023-06-14T03:28:16;23.60;;;6.50;;
22565;SDS011;11449;51.330;19.378;2023-06-14T03:33:25;22.20;;;6.80;;
22565;SDS011;11449;51.330;19.378;2023-06-14T03:38:33;20.60;;;6.50;;
22565;SDS011;11449;51.330;19.378;2023-06-14T03:43:41;22.10;;;7.00;;
22565;SDS011;11449;51.330;19.378;2023-06-14T03:48:50;19.40;;;7.20;;
22565;SDS011;11449;51.330;19.378;2023-06-14T03:53:58;19.90;;;6.90;;
22565;SDS011;11449;51.330;19.378;2023-06-14T03:59:06;24.10;;;8.00;;
22565;SDS011;11449;51.330;19.378;2023-06-14T04:04:13;22.50;;;7.80;;
22565;SDS011;11449;51.330;19.378;2023-06-14T04:09:24;24.00;;;8.80;;
22565;SDS011;11449;51.330;19.378;2023-06-14T04:14:32;23.20;;;8.20;;
22565;SDS011;11449;51.330;19.378;2023-06-14T04:19:42;24.50;;;8.10;;
22565;SDS011;11449;51.330;19.378;2023-06-14T04:24:50;21.90;;;8.40;;
22565;SDS011;11449;51.330;19.378;2023-06-14T04:29:58;21.60;;;8.60;;
22565;SDS011;11449;51.330;19.378;2023-06-14T04:35:11;34.50;;;9.30;;
22565;SDS011;11449;51.330;19.378;2023-06-14T04:40:21;35.10;;;9.50;;
22565;SDS011;11449;51.330;19.378;2023-06-14T04:45:28;26.80;;;8.90;;
22565;SDS011;11449;51.330;19.378;2023-06-14T04:50:39;30.40;;;8.80;;
22565;SDS011;11449;51.330;19.378;2023-06-14T04:55:48;35.00;;;9.60;;
22565;SDS011;11449;51.330;19.378;2023-06-14T05:00:57;23.70;;;7.70;;
22565;SDS011;11449;51.330;19.378;2023-06-14T05:06:06;26.50;;;8.70;;
22565;SDS011;11449;51.330;19.378;2023-06-14T05:11:15;27.60;;;7.90;;
22565;SDS011;11449;51.330;19.378;2023-06-14T05:16:24;30.50;;;8.30;;
22565;SDS011;11449;51.330;19.378;2023-06-14T05:21:33;28.10;;;7.90;;
22565;SDS011;11449;51.330;19.378;2023-06-14T05:26:43;33.80;;;9.40;;
22565;SDS011;11449;51.330;19.378;2023-06-14T05:31:51;23.10;;;9.20;;
22565;SDS011;11449;51.330;19.378;2023-06-14T05:36:59;20.90;;;8.80;;
22565;SDS011;11449;51.330;19.378;2023-06-14T05:42:07;27.30;;;9.50;;
22565;SDS011;11449;51.330;19.378;2023-06-14T05:47:15;29.60;;;8.30;;
22565;SDS011;11449;51.330;19.378;2023-06-14T05:52:23;30.70;;;8.70;;
22565;SDS011;11449;51.330;19.378;2023-06-14T05:57:31;31.00;;;9.10;;
22565;SDS011;11449;51.330;19.378;2023-06-14T06:02:39;33.40;;;9.00;;
22565;SDS011;11449;51.330;19.378;2023-06-14T06:07:47;30.00;;;8.10;;
22565;SDS011;11449;51.330;19.378;2023-06-14T06:12:55;23.20;;;8.30;;
22565;SDS011;11449;51.330;19.378;2023-06-14T06:18:03;28.90;;;8.00;;
22565;SDS011;11449;51.330;19.378;2023-06-14T06:23:11;28.00;;;8.40;;
22565;SDS011;11449;51.330;19.378;2023-06-14T06:28:18;18.50;;;7.60;;
22565;SDS011;11449;51.330;19.378;2023-06-14T06:33:26;14.00;;;7.90;;
22565;SDS011;11449;51.330;19.378;2023-06-14T06:38:34;24.20;;;8.20;;
22565;SDS011;11449;51.330;19.378;2023-06-14T06:43:42;21.60;;;7.80;;
22565;SDS011;11449;51.330;19.378;2023-06-14T06:48:51;28.70;;;8.40;;
22565;SDS011;11449;51.330;19.378;2023-06-14T06:53:59;30.90;;;8.40;;
22565;SDS011;11449;51.330;19.378;2023-06-14T06:59:07;30.70;;;8.20;;
22565;SDS011;11449;51.330;19.378;2023-06-14T07:04:15;32.00;;;8.00;;
22565;SDS011;11449;51.330;19.378;2023-06-14T07:09:22;37.30;;;9.30;;
22565;SDS011;11449;51.330;19.378;2023-06-14T07:14:32;35.50;;;8.40;;
22565;SDS011;11449;51.330;19.378;2023-06-14T07:19:39;34.30;;;7.40;;
22565;SDS011;11449;51.330;19.378;2023-06-14T07:24:47;52.60;;;8.60;;
22565;SDS011;11449;51.330;19.378;2023-06-14T07:29:55;199.60;;;19.20;;
22565;SDS011;11449;51.330;19.378;2023-06-14T07:35:03;33.70;;;7.60;;
22565;SDS011;11449;51.330;19.378;2023-06-14T07:40:11;45.60;;;7.80;;
22565;SDS011;11449;51.330;19.378;2023-06-14T07:45:20;40.10;;;6.80;;
22565;SDS011;11449;51.330;19.378;2023-06-14T07:50:27;51.80;;;7.90;;
22565;SDS011;11449;51.330;19.378;2023-06-14T07:55:36;35.90;;;7.80;;
22565;SDS011;11449;51.330;19.378;2023-06-14T08:00:47;33.30;;;9.20;;
22565;SDS011;11449;51.330;19.378;2023-06-14T08:05:55;35.10;;;8.20;;
22565;SDS011;11449;51.330;19.378;2023-06-14T08:11:03;42.30;;;10.20;;
22565;SDS011;11449;51.330;19.378;2023-06-14T08:16:10;29.00;;;7.50;;
22565;SDS011;11449;51.330;19.378;2023-06-14T08:21:18;29.70;;;7.20;;
22565;SDS011;11449;51.330;19.378;2023-06-14T08:26:26;23.60;;;7.00;;
22565;SDS011;11449;51.330;19.378;2023-06-14T08:31:37;35.80;;;8.50;;
22565;SDS011;11449;51.330;19.378;2023-06-14T08:36:44;26.60;;;7.20;;
22565;SDS011;11449;51.330;19.378;2023-06-14T08:41:53;33.90;;;8.30;;
22565;SDS011;11449;51.330;19.378;2023-06-14T08:47:02;22.50;;;7.20;;
22565;SDS011;11449;51.330;19.378;2023-06-14T08:52:11;25.50;;;8.00;;
22565;SDS011;11449;51.330;19.378;2023-06-14T08:57:20;24.90;;;7.80;;
22565;SDS011;11449;51.330;19.378;2023-06-14T09:02:28;31.30;;;7.40;;
22565;SDS011;11449;51.330;19.378;2023-06-14T09:07:37;27.30;;;7.30;;
22565;SDS011;11449;51.330;19.378;2023-06-14T09:12:46;23.50;;;6.90;;
22565;SDS011;11449;51.330;19.378;2023-06-14T09:17:54;21.60;;;7.30;;
22565;SDS011;11449;51.330;19.378;2023-06-14T09:23:03;25.90;;;7.30;;
22565;SDS011;11449;51.330;19.378;2023-06-14T09:28:12;27.00;;;7.00;;
22565;SDS011;11449;51.330;19.378;2023-06-14T09:33:20;31.20;;;7.30;;
22565;SDS011;11449;51.330;19.378;2023-06-14T09:38:28;30.10;;;7.70;;
22565;SDS011;11449;51.330;19.378;2023-06-14T09:43:36;25.10;;;6.50;;
22565;SDS011;11449;51.330;19.378;2023-06-14T09:48:45;31.00;;;7.80;;
22565;SDS011;11449;51.330;19.378;2023-06-14T09:53:53;24.10;;;7.00;;
22565;SDS011;11449;51.330;19.378;2023-06-14T10:04:10;21.20;;;6.10;;
22565;SDS011;11449;51.330;19.378;2023-06-14T10:09:18;23.20;;;6.90;;
22565;SDS011;11449;51.330;19.378;2023-06-14T10:14:26;15.40;;;5.90;;
22565;SDS011;11449;51.330;19.378;2023-06-14T10:19:40;12.50;;;5.80;;
22565;SDS011;11449;51.330;19.378;2023-06-14T10:24:50;13.00;;;5.60;;
22565;SDS011;11449;51.330;19.378;2023-06-14T10:35:05;13.30;;;5.80;;
22565;SDS011;11449;51.330;19.378;2023-06-14T10:40:29;13.70;;;5.70;;
22565;SDS011;11449;51.330;19.378;2023-06-14T10:45:37;16.00;;;6.00;;
22565;SDS011;11449;51.330;19.378;2023-06-14T10:51:05;16.80;;;6.20;;
22565;SDS011;11449;51.330;19.378;2023-06-14T10:56:23;12.90;;;6.00;;
22565;SDS011;11449;51.330;19.378;2023-06-14T11:01:36;13.80;;;5.70;;
22565;SDS011;11449;51.330;19.378;2023-06-14T11:06:48;16.30;;;6.40;;
22565;SDS011;11449;51.330;19.378;2023-06-14T11:11:56;17.30;;;6.40;;
22565;SDS011;11449;51.330;19.378;2023-06-14T11:17:04;17.70;;;6.30;;
22565;SDS011;11449;51.330;19.378;2023-06-14T11:22:12;17.80;;;6.40;;
22565;SDS011;11449;51.330;19.378;2023-06-14T11:27:22;17.30;;;6.40;;
22565;SDS011;11449;51.330;19.378;2023-06-14T11:32:31;31.40;;;8.30;;
22565;SDS011;11449;51.330;19.378;2023-06-14T11:37:39;12.50;;;5.60;;
22565;SDS011;11449;51.330;19.378;2023-06-14T11:42:47;13.40;;;5.90;;
22565;SDS011;11449;51.330;19.378;2023-06-14T11:47:55;34.40;;;7.70;;
22565;SDS011;11449;51.330;19.378;2023-06-14T11:53:07;31.40;;;6.90;;
22565;SDS011;11449;51.330;19.378;2023-06-14T11:58:15;25.50;;;6.50;;
22565;SDS011;11449;51.330;19.378;2023-06-14T12:03:26;20.00;;;6.60;;
22565;SDS011;11449;51.330;19.378;2023-06-14T12:08:36;18.40;;;5.90;;
22565;SDS011;11449;51.330;19.378;2023-06-14T12:13:46;16.80;;;5.90;;
22565;SDS011;11449;51.330;19.378;2023-06-14T12:18:56;17.00;;;6.40;;
22565;SDS011;11449;51.330;19.378;2023-06-14T12:24:07;14.80;;;5.40;;
22565;SDS011;11449;51.330;19.378;2023-06-14T12:29:16;15.60;;;6.00;;
22565;SDS011;11449;51.330;19.378;2023-06-14T12:34:26;18.70;;;6.30;;
22565;SDS011;11449;51.330;19.378;2023-06-14T12:39:34;24.80;;;8.00;;
22565;SDS011;11449;51.330;19.378;2023-06-14T12:44:42;17.70;;;6.70;;
22565;SDS011;11449;51.330;19.378;2023-06-14T12:49:50;26.20;;;7.10;;
22565;SDS011;11449;51.330;19.378;2023-06-14T12:54:58;21.60;;;7.20;;
22565;SDS011;11449;51.330;19.378;2023-06-14T13:00:06;21.20;;;7.00;;
22565;SDS011;11449;51.330;19.378;2023-06-14T13:05:15;17.40;;;6.60;;
22565;SDS011;11449;51.330;19.378;2023-06-14T13:10:22;17.60;;;6.40;;
22565;SDS011;11449;51.330;19.378;2023-06-14T13:15:30;19.20;;;6.10;;
22565;SDS011;11449;51.330;19.378;2023-06-14T13:20:39;15.40;;;6.10;;
22565;SDS011;11449;51.330;19.378;2023-06-14T13:25:46;13.60;;;5.50;;
22565;SDS011;11449;51.330;19.378;2023-06-14T13:30:57;16.10;;;5.90;;
22565;SDS011;11449;51.330;19.378;2023-06-14T13:36:04;17.90;;;6.20;;
22565;SDS011;11449;51.330;19.378;2023-06-14T13:41:12;17.60;;;5.90;;
22565;SDS011;11449;51.330;19.378;2023-06-14T13:46:20;16.80;;;6.20;;
22565;SDS011;11449;51.330;19.378;2023-06-14T13:51:27;16.50;;;6.10;;
22565;SDS011;11449;51.330;19.378;2023-06-14T13:56:36;13.80;;;5.90;;
22565;SDS011;11449;51.330;19.378;2023-06-14T14:01:44;16.20;;;6.10;;
22565;SDS011;11449;51.330;19.378;2023-06-14T14:06:51;10.90;;;4.50;;
22565;SDS011;11449;51.330;19.378;2023-06-14T14:11:59;12.10;;;5.90;;
22565;SDS011;11449;51.330;19.378;2023-06-14T14:17:07;17.30;;;6.30;;
22565;SDS011;11449;51.330;19.378;2023-06-14T14:22:14;13.60;;;6.40;;
22565;SDS011;11449;51.330;19.378;2023-06-14T14:27:22;14.80;;;6.10;;
22565;SDS011;11449;51.330;19.378;2023-06-14T14:32:30;24.50;;;7.60;;
22565;SDS011;11449;51.330;19.378;2023-06-14T14:37:37;18.80;;;6.70;;
22565;SDS011;11449;51.330;19.378;2023-06-14T14:42:45;13.70;;;5.60;;
22565;SDS011;11449;51.330;19.378;2023-06-14T14:47:53;20.80;;;6.80;;
22565;SDS011;11449;51.330;19.378;2023-06-14T14:53:00;20.50;;;6.60;;
22565;SDS011;11449;51.330;19.378;2023-06-14T14:58:08;14.90;;;5.80;;
22565;SDS011;11449;51.330;19.378;2023-06-14T15:03:16;27.50;;;7.50;;
22565;SDS011;11449;51.330;19.378;2023-06-14T15:08:24;30.30;;;10.00;;
22565;SDS011;11449;51.330;19.378;2023-06-14T15:13:32;29.80;;;9.60;;
22565;SDS011;11449;51.330;19.378;2023-06-14T15:18:39;30.70;;;9.10;;
22565;SDS011;11449;51.330;19.378;2023-06-14T15:23:47;30.40;;;8.30;;
22565;SDS011;11449;51.330;19.378;2023-06-14T15:28:55;16.40;;;5.40;;
22565;SDS011;11449;51.330;19.378;2023-06-14T15:34:03;21.10;;;8.10;;
22565;SDS011;11449;51.330;19.378;2023-06-14T15:39:10;28.10;;;10.20;;
22565;SDS011;11449;51.330;19.378;2023-06-14T15:44:18;20.00;;;6.90;;
22565;SDS011;11449;51.330;19.378;2023-06-14T15:49:27;24.90;;;8.50;;
22565;SDS011;11449;51.330;19.378;2023-06-14T15:54:34;24.10;;;9.60;;
22565;SDS011;11449;51.330;19.378;2023-06-14T15:59:42;57.70;;;18.20;;
22565;SDS011;11449;51.330;19.378;2023-06-14T16:04:50;24.20;;;7.50;;
22565;SDS011;11449;51.330;19.378;2023-06-14T16:09:57;26.90;;;7.80;;
22565;SDS011;11449;51.330;19.378;2023-06-14T16:15:05;24.30;;;6.90;;
22565;SDS011;11449;51.330;19.378;2023-06-14T16:20:13;23.70;;;7.60;;
22565;SDS011;11449;51.330;19.378;2023-06-14T16:25:21;30.70;;;9.90;;
22565;SDS011;11449;51.330;19.378;2023-06-14T16:30:29;32.50;;;9.30;;
22565;SDS011;11449;51.330;19.378;2023-06-14T16:35:36;33.50;;;10.20;;
22565;SDS011;11449;51.330;19.378;2023-06-14T16:40:44;23.50;;;10.10;;
22565;SDS011;11449;51.330;19.378;2023-06-14T16:45:52;22.80;;;9.40;;
22565;SDS011;11449;51.330;19.378;2023-06-14T16:51:00;28.00;;;11.10;;
22565;SDS011;11449;51.330;19.378;2023-06-14T16:56:07;18.90;;;8.50;;
22565;SDS011;11449;51.330;19.378;2023-06-14T17:01:15;21.20;;;8.30;;
22565;SDS011;11449;51.330;19.378;2023-06-14T17:06:23;24.10;;;9.20;;
22565;SDS011;11449;51.330;19.378;2023-06-14T17:11:31;25.20;;;9.70;;
22565;SDS011;11449;51.330;19.378;2023-06-14T17:16:39;30.40;;;10.00;;
22565;SDS011;11449;51.330;19.378;2023-06-14T17:21:47;34.30;;;10.80;;
22565;SDS011;11449;51.330;19.378;2023-06-14T17:26:59;38.40;;;11.80;;
22565;SDS011;11449;51.330;19.378;2023-06-14T17:32:07;40.60;;;12.60;;
22565;SDS011;11449;51.330;19.378;2023-06-14T17:37:14;38.80;;;14.70;;
22565;SDS011;11449;51.330;19.378;2023-06-14T17:42:22;44.20;;;16.70;;
22565;SDS011;11449;51.330;19.378;2023-06-14T17:47:31;38.10;;;13.20;;
22565;SDS011;11449;51.330;19.378;2023-06-14T17:52:39;47.40;;;12.90;;
22565;SDS011;11449;51.330;19.378;2023-06-14T17:57:46;48.40;;;16.80;;
22565;SDS011;11449;51.330;19.378;2023-06-14T18:02:54;59.20;;;23.30;;
22565;SDS011;11449;51.330;19.378;2023-06-14T18:08:05;59.50;;;25.20;;
22565;SDS011;11449;51.330;19.378;2023-06-14T18:13:13;48.00;;;21.00;;
22565;SDS011;11449;51.330;19.378;2023-06-14T18:18:21;56.30;;;20.60;;
22565;SDS011;11449;51.330;19.378;2023-06-14T18:23:29;46.70;;;14.50;;
22565;SDS011;11449;51.330;19.378;2023-06-14T18:28:37;44.70;;;15.40;;
22565;SDS011;11449;51.330;19.378;2023-06-14T18:33:45;58.60;;;14.90;;
22565;SDS011;11449;51.330;19.378;2023-06-14T18:38:53;50.00;;;13.70;;
22565;SDS011;11449;51.330;19.378;2023-06-14T18:44:00;50.70;;;13.90;;
22565;SDS011;11449;51.330;19.378;2023-06-14T18:49:08;51.10;;;14.50;;
22565;SDS011;11449;51.330;19.378;2023-06-14T18:54:16;72.10;;;17.70;;
22565;SDS011;11449;51.330;19.378;2023-06-14T18:59:24;60.20;;;16.70;;
22565;SDS011;11449;51.330;19.378;2023-06-14T19:04:32;53.70;;;15.70;;
22565;SDS011;11449;51.330;19.378;2023-06-14T19:09:40;56.80;;;16.00;;
22565;SDS011;11449;51.330;19.378;2023-06-14T19:14:48;46.10;;;15.80;;
22565;SDS011;11449;51.330;19.378;2023-06-14T19:19:55;65.40;;;18.10;;
22565;SDS011;11449;51.330;19.378;2023-06-14T19:25:03;63.80;;;18.10;;
22565;SDS011;11449;51.330;19.378;2023-06-14T19:30:11;36.10;;;14.80;;
22565;SDS011;11449;51.330;19.378;2023-06-14T19:35:20;32.60;;;13.90;;
22565;SDS011;11449;51.330;19.378;2023-06-14T19:40:29;33.50;;;13.40;;
22565;SDS011;11449;51.330;19.378;2023-06-14T19:45:37;29.10;;;12.40;;
22565;SDS011;11449;51.330;19.378;2023-06-14T19:50:44;28.90;;;12.70;;
22565;SDS011;11449;51.330;19.378;2023-06-14T19:55:53;35.00;;;13.00;;
22565;SDS011;11449;51.330;19.378;2023-06-14T20:01:00;36.50;;;14.10;;
22565;SDS011;11449;51.330;19.378;2023-06-14T20:06:08;55.10;;;15.00;;
22565;SDS011;11449;51.330;19.378;2023-06-14T20:11:18;45.70;;;15.90;;
22565;SDS011;11449;51.330;19.378;2023-06-14T20:16:25;35.90;;;14.20;;
22565;SDS011;11449;51.330;19.378;2023-06-14T20:21:33;35.00;;;15.60;;
22565;SDS011;11449;51.330;19.378;2023-06-14T20:26:41;36.80;;;14.70;;
22565;SDS011;11449;51.330;19.378;2023-06-14T20:31:49;34.90;;;15.00;;
22565;SDS011;11449;51.330;19.378;2023-06-14T20:36:56;36.50;;;14.00;;
22565;SDS011;11449;51.330;19.378;2023-06-14T20:42:04;35.60;;;14.60;;
22565;SDS011;11449;51.330;19.378;2023-06-14T20:47:16;34.80;;;14.30;;
22565;SDS011;11449;51.330;19.378;2023-06-14T20:52:24;45.60;;;15.40;;
22565;SDS011;11449;51.330;19.378;2023-06-14T20:57:34;34.50;;;14.20;;
22565;SDS011;11449;51.330;19.378;2023-06-14T21:02:43;29.10;;;13.70;;
22565;SDS011;11449;51.330;19.378;2023-06-14T21:07:50;34.30;;;13.00;;
22565;SDS011;11449;51.330;19.378;2023-06-14T21:12:58;39.90;;;14.80;;
22565;SDS011;11449;51.330;19.378;2023-06-14T21:18:06;42.70;;;15.60;;
22565;SDS011;11449;51.330;19.378;2023-06-14T21:23:13;47.60;;;15.40;;
22565;SDS011;11449;51.330;19.378;2023-06-14T21:28:21;45.30;;;14.40;;
22565;SDS011;11449;51.330;19.378;2023-06-14T21:33:29;42.70;;;15.60;;
22565;SDS011;11449;51.330;19.378;2023-06-14T21:38:37;42.70;;;15.80;;
22565;SDS011;11449;51.330;19.378;2023-06-14T21:43:44;42.50;;;15.30;;
22565;SDS011;11449;51.330;19.378;2023-06-14T21:48:52;38.80;;;15.80;;
22565;SDS011;11449;51.330;19.378;2023-06-14T21:54:00;31.70;;;13.90;;
22565;SDS011;11449;51.330;19.378;2023-06-14T21:59:08;44.50;;;16.40;;
22565;SDS011;11449;51.330;19.378;2023-06-14T22:04:15;36.20;;;15.00;;
22565;SDS011;11449;51.330;19.378;2023-06-14T22:09:23;40.70;;;15.80;;
22565;SDS011;11449;51.330;19.378;2023-06-14T22:14:33;37.60;;;15.80;;
22565;SDS011;11449;51.330;19.378;2023-06-14T22:19:41;35.10;;;14.70;;
22565;SDS011;11449;51.330;19.378;2023-06-14T22:24:49;36.50;;;15.80;;
22565;SDS011;11449;51.330;19.378;2023-06-14T22:29:56;39.20;;;15.10;;
22565;SDS011;11449;51.330;19.378;2023-06-14T22:35:05;33.60;;;14.20;;
22565;SDS011;11449;51.330;19.378;2023-06-14T22:40:14;46.80;;;15.90;;
22565;SDS011;11449;51.330;19.378;2023-06-14T22:45:22;43.90;;;15.70;;
22565;SDS011;11449;51.330;19.378;2023-06-14T22:50:30;38.50;;;15.80;;
22565;SDS011;11449;51.330;19.378;2023-06-14T22:55:38;51.00;;;16.70;;
22565;SDS011;11449;51.330;19.378;2023-06-14T23:00:45;50.20;;;17.30;;
22565;SDS011;11449;51.330;19.378;2023-06-14T23:05:54;46.20;;;16.20;;
22565;SDS011;11449;51.330;19.378;2023-06-14T23:11:04;39.70;;;16.50;;
22565;SDS011;11449;51.330;19.378;2023-06-14T23:16:11;35.90;;;15.10;;
22565;SDS011;11449;51.330;19.378;2023-06-14T23:21:20;42.30;;;16.10;;
22565;SDS011;11449;51.330;19.378;2023-06-14T23:26:28;35.40;;;14.70;;
22565;SDS011;11449;51.330;19.378;2023-06-14T23:31:36;38.20;;;14.60;;
22565;SDS011;11449;51.330;19.378;2023-06-14T23:36:44;40.10;;;14.50;;
22565;SDS011;11449;51.330;19.378;2023-06-14T23:41:53;39.00;;;14.30;;
22565;SDS011;11449;51.330;19.378;2023-06-14T23:47:01;39.20;;;14.30;;
22565;SDS011;11449;51.330;19.378;2023-06-14T23:52:13;35.50;;;14.00;;
22565;SDS011;11449;51.330;19.378;2023-06-14T23:57:22;40.70;;;14.50;;
